Time;durP1;ratioP1;P1;durP2;ratioP2;P2;SDS_P1;SDS_P2;PMS_P1;PMS_P2;Temp;Humidity;BMP_temperature;BMP_pressure;BME280_temperature;BME280_humidity;BME280_pressure;Samples;Min_cycle;Max_cycle;Signal;HPM_P1;HPM_P2
2023/08/17 00:00:18;;;;;;;10.02;3.45;;;16.40;1.00;;;;;;6186979;23;20100;-90
2023/08/17 00:02:43;;;;;;;3.40;2.60;;;16.40;1.00;;;;;;6162045;23;20381;-90
2023/08/17 00:05:12;;;;;;;6.60;3.75;;;16.40;1.00;;;;;;6188606;23;20024;-90
2023/08/17 00:07:38;;;;;;;3.60;3.22;;;16.30;1.00;;;;;;6163030;23;20036;-90
2023/08/17 00:10:04;;;;;;;6.10;2.83;;;16.30;1.00;;;;;;6162806;23;20020;-90
2023/08/17 00:12:30;;;;;;;6.03;2.97;;;16.30;1.00;;;;;;6162675;23;20449;-90
2023/08/17 00:14:58;;;;;;;4.43;2.80;;;15.30;1.00;;;;;;6163163;23;20017;-90
2023/08/17 00:17:24;;;;;;;6.47;2.70;;;16.30;1.00;;;;;;6138016;23;20021;-89
2023/08/17 00:19:50;;;;;;;4.47;2.67;;;16.30;1.00;;;;;;6163915;23;20097;-89
2023/08/17 00:22:16;;;;;;;5.60;2.63;;;15.40;1.00;;;;;;6163739;23;20017;-90
2023/08/17 00:24:45;;;;;;;6.45;2.70;;;16.20;1.00;;;;;;6163576;23;20476;-89
2023/08/17 00:27:11;;;;;;;3.20;2.50;;;16.20;1.00;;;;;;6139241;23;20020;-90
2023/08/17 00:29:42;;;;;;;5.72;2.55;;;16.20;1.00;;;;;;6165200;23;20385;-89
2023/08/17 00:32:08;;;;;;;6.03;2.28;;;16.00;1.00;;;;;;6140549;23;20016;-90
2023/08/17 00:34:35;;;;;;;3.63;2.50;;;16.20;1.00;;;;;;6163983;23;20592;-90
2023/08/17 00:37:03;;;;;;;5.32;2.50;;;16.20;1.00;;;;;;6190542;23;20017;-90
2023/08/17 00:39:29;;;;;;;5.70;3.00;;;16.20;1.00;;;;;;6189270;23;20024;-90
2023/08/17 00:41:55;;;;;;;5.72;2.58;;;16.20;1.00;;;;;;6188840;23;20027;-90
2023/08/17 00:44:24;;;;;;;3.92;2.72;;;16.10;1.00;;;;;;6164056;23;20099;-90
2023/08/17 00:46:50;;;;;;;5.43;2.38;;;16.10;1.00;;;;;;6188063;23;20039;-91
2023/08/17 00:49:18;;;;;;;2.47;2.28;;;16.20;1.00;;;;;;6163651;23;20453;-89
2023/08/17 00:51:44;;;;;;;5.00;2.70;;;16.20;1.00;;;;;;6163385;23;20028;-90
2023/08/17 00:54:18;;;;;;;4.63;2.42;;;16.20;1.00;;;;;;6165947;23;20024;-90
2023/08/17 00:56:43;;;;;;;2.22;2.00;;;16.20;1.00;;;;;;6163528;23;20022;-90
2023/08/17 00:59:14;;;;;;;2.58;2.08;;;16.20;1.00;;;;;;6163597;23;20056;-90
2023/08/17 01:01:40;;;;;;;7.20;2.75;;;16.10;1.00;;;;;;6164720;23;20056;-90
2023/08/17 01:04:06;;;;;;;4.05;2.17;;;16.20;1.00;;;;;;6165461;23;20472;-90
2023/08/17 01:06:34;;;;;;;3.72;2.63;;;16.10;1.00;;;;;;6140212;23;20028;-91
2023/08/17 01:09:03;;;;;;;5.75;2.50;;;16.10;1.00;;;;;;6164585;23;20024;-89
2023/08/17 01:11:41;;;;;;;6.05;2.85;;;16.00;1.00;;;;;;6163294;23;20047;-91
2023/08/17 01:14:37;;;;;;;3.42;3.13;;;16.00;1.00;;;;;;6165199;23;20017;-89
2023/08/17 01:17:15;;;;;;;4.63;2.67;;;16.00;1.00;;;;;;6164468;23;20024;-90
2023/08/17 01:19:47;;;;;;;4.28;2.75;;;16.10;1.00;;;;;;6163061;23;20024;-90
2023/08/17 01:22:17;;;;;;;4.10;3.25;;;16.00;1.00;;;;;;6191040;23;20436;-90
2023/08/17 01:24:45;;;;;;;4.05;2.65;;;16.00;1.00;;;;;;6164505;23;20099;-90
2023/08/17 01:27:13;;;;;;;3.47;2.75;;;16.10;1.00;;;;;;6163758;23;20496;-90
2023/08/17 01:29:39;;;;;;;4.07;2.83;;;16.10;1.00;;;;;;6189105;23;20020;-90
2023/08/17 01:32:21;;;;;;;5.43;3.00;;;16.00;1.00;;;;;;6164580;23;20016;-90
2023/08/17 01:35:01;;;;;;;7.47;3.22;;;16.00;1.00;;;;;;6164274;23;20017;-90
2023/08/17 01:37:33;;;;;;;7.07;2.70;;;16.00;1.00;;;;;;6189985;23;20444;-91
2023/08/17 01:39:59;;;;;;;3.28;2.60;;;15.80;1.00;;;;;;6189077;23;20024;-90
2023/08/17 01:42:26;;;;;;;6.38;2.67;;;15.90;1.00;;;;;;6189267;23;20017;-90
2023/08/17 01:44:52;;;;;;;2.53;2.20;;;15.90;1.00;;;;;;6189219;23;20441;-90
2023/08/17 01:47:24;;;;;;;5.35;2.35;;;15.70;1.00;;;;;;6164128;23;20012;-90
2023/08/17 01:49:53;;;;;;;4.72;2.67;;;15.80;1.00;;;;;;6188707;23;20020;-90
2023/08/17 01:52:19;;;;;;;6.53;2.80;;;15.80;1.00;;;;;;6164533;23;20016;-90
2023/08/17 01:54:47;;;;;;;5.95;3.03;;;15.60;1.00;;;;;;6188841;23;20476;-90
2023/08/17 01:57:15;;;;;;;3.80;2.45;;;15.80;1.00;;;;;;6164272;23;20019;-90
2023/08/17 01:59:41;;;;;;;5.97;2.70;;;15.80;1.00;;;;;;6164308;23;20091;-90
2023/08/17 02:02:08;;;;;;;6.03;2.70;;;15.80;1.00;;;;;;6138521;23;20055;-90
2023/08/17 02:04:34;;;;;;;4.68;2.50;;;15.80;1.00;;;;;;6164623;23;20075;-89
2023/08/17 02:06:59;;;;;;;6.50;3.17;;;15.60;1.00;;;;;;6163831;23;20017;-90
2023/08/17 02:09:28;;;;;;;4.60;3.23;;;15.60;1.00;;;;;;6162733;23;20025;-90
2023/08/17 02:12:02;;;;;;;8.00;3.33;;;15.60;1.00;;;;;;6164337;23;20268;-90
2023/08/17 02:14:28;;;;;;;7.68;3.15;;;15.60;3.10;;;;;;6164752;23;20016;-90
2023/08/17 02:16:54;;;;;;;5.38;3.28;;;15.60;3.50;;;;;;6138937;23;20103;-89
2023/08/17 02:19:22;;;;;;;7.07;2.88;;;15.50;4.70;;;;;;6163860;23;20016;-90
2023/08/17 02:21:48;;;;;;;8.32;3.00;;;15.60;5.60;;;;;;6162803;23;20100;-90
2023/08/17 02:24:14;;;;;;;4.60;2.78;;;15.60;7.40;;;;;;6163321;23;20074;-90
2023/08/17 02:26:40;;;;;;;4.43;2.88;;;15.50;8.20;;;;;;6163485;23;20017;-90
2023/08/17 02:29:05;;;;;;;6.07;2.88;;;15.50;10.00;;;;;;6164266;23;20070;-90
2023/08/17 02:31:49;;;;;;;2.67;2.47;;;15.50;11.30;;;;;;6162707;23;20452;-90
2023/08/17 02:34:17;;;;;;;5.07;2.97;;;15.40;12.90;;;;;;6188049;23;20012;-91
2023/08/17 02:36:42;;;;;;;4.85;3.22;;;15.40;14.20;;;;;;6162915;23;20068;-90
2023/08/17 02:39:11;;;;;;;6.70;3.13;;;15.30;16.20;;;;;;6163676;23;20457;-90
2023/08/17 02:41:37;;;;;;;7.13;3.03;;;15.40;17.80;;;;;;6163250;23;20020;-90
2023/08/17 02:44:03;;;;;;;3.63;3.07;;;15.30;18.40;;;;;;6163115;23;20074;-90
2023/08/17 02:46:29;;;;;;;4.78;2.90;;;15.40;19.00;;;;;;6139603;23;20251;-90
2023/08/17 02:48:57;;;;;;;4.47;2.77;;;15.00;19.50;;;;;;6162557;23;20334;-90
2023/08/17 02:51:23;;;;;;;6.55;3.25;;;15.40;20.70;;;;;;6138429;23;20263;-90
2023/08/17 02:53:51;;;;;;;6.10;2.75;;;14.20;20.50;;;;;;6186809;23;20016;-89
2023/08/17 02:56:19;;;;;;;4.65;2.90;;;15.30;21.50;;;;;;6162668;23;20075;-90
2023/08/17 02:58:47;;;;;;;6.18;3.08;;;15.30;23.00;;;;;;6162925;23;20020;-89
2023/08/17 03:01:15;;;;;;;4.57;3.03;;;15.30;24.00;;;;;;6163232;23;20020;-90
2023/08/17 03:03:43;;;;;;;3.78;2.65;;;15.30;24.30;;;;;;6188009;23;20020;-89
2023/08/17 03:06:08;;;;;;;4.22;3.30;;;15.30;24.60;;;;;;6187024;23;20449;-90
2023/08/17 03:08:34;;;;;;;3.85;3.05;;;15.40;25.50;;;;;;6137616;23;20071;-90
2023/08/17 03:11:02;;;;;;;4.05;3.15;;;14.40;26.00;;;;;;6187243;23;20040;-89
2023/08/17 03:13:28;;;;;;;5.57;3.05;;;15.30;25.70;;;;;;6163139;23;20712;-90
2023/08/17 03:15:54;;;;;;;5.90;3.13;;;15.30;26.70;;;;;;6186476;23;20048;-89
2023/08/17 03:18:20;;;;;;;6.45;3.60;;;15.30;27.10;;;;;;6163409;23;20484;-91
2023/08/17 03:20:48;;;;;;;4.82;3.90;;;15.30;27.60;;;;;;6137891;23;20016;-89
2023/08/17 03:23:14;;;;;;;5.72;3.17;;;15.30;26.80;;;;;;6163166;23;20021;-90
2023/08/17 03:25:50;;;;;;;;;;;;;;;;;;;;;
2023/08/17 03:28:16;;;;;;;6.05;3.55;;;15.30;27.00;;;;;;6187618;23;20020;-89
2023/08/17 03:30:42;;;;;;;5.07;3.30;;;15.20;28.40;;;;;;6188051;23;20486;-89
2023/08/17 03:33:11;;;;;;;5.10;3.67;;;15.20;28.80;;;;;;6163087;23;20332;-90
2023/08/17 03:35:36;;;;;;;7.57;4.45;;;15.20;28.90;;;;;;6162557;23;20377;-90
2023/08/17 03:38:02;;;;;;;8.90;4.00;;;15.20;29.80;;;;;;6163002;23;20064;-90
2023/08/17 03:40:28;;;;;;;5.43;3.42;;;15.10;30.40;;;;;;6139848;23;20021;-90
2023/08/17 03:42:54;;;;;;;9.90;3.47;;;15.10;31.40;;;;;;6138386;23;20450;-90
2023/08/17 03:45:20;;;;;;;4.78;3.65;;;15.10;31.50;;;;;;6164404;23;20021;-89
2023/08/17 03:47:46;;;;;;;6.13;4.03;;;14.60;32.40;;;;;;6189589;23;20070;-89
2023/08/17 03:50:11;;;;;;;6.10;4.00;;;15.00;33.70;;;;;;6188956;23;20458;-90
2023/08/17 03:52:37;;;;;;;8.83;3.90;;;15.10;35.00;;;;;;6138844;23;20013;-90
2023/08/17 03:55:06;;;;;;;6.27;4.20;;;15.00;36.50;;;;;;6163261;23;20716;-90
2023/08/17 03:57:34;;;;;;;4.82;4.28;;;15.00;38.60;;;;;;6163968;23;20250;-89
2023/08/17 04:00:00;;;;;;;7.90;4.13;;;15.00;40.00;;;;;;6161549;23;20024;-89
2023/08/17 04:02:28;;;;;;;11.25;3.78;;;15.00;41.60;;;;;;6164457;23;20013;-90
2023/08/17 04:04:59;;;;;;;7.72;3.22;;;15.10;42.50;;;;;;6139996;23;20017;-90
2023/08/17 04:07:25;;;;;;;7.35;4.80;;;15.10;43.30;;;;;;6189053;23;20453;-90
2023/08/17 04:09:51;;;;;;;7.17;3.77;;;15.20;44.00;;;;;;6139628;23;20021;-90
2023/08/17 04:12:19;;;;;;;8.63;4.30;;;15.20;44.40;;;;;;6140048;23;20732;-90
2023/08/17 04:14:45;;;;;;;7.53;4.10;;;15.20;44.40;;;;;;6140429;23;20310;-90
2023/08/17 04:17:11;;;;;;;6.13;4.38;;;15.10;44.70;;;;;;6163889;23;20020;-90
2023/08/17 04:19:37;;;;;;;;;;;15.20;44.70;;;;;;6140566;23;20013;-90
2023/08/17 04:22:05;;;;;;;6.53;3.75;;;15.20;50.50;;;;;;6188185;23;19916;-90
2023/08/17 04:24:31;;;;;;;4.20;3.38;;;15.20;43.40;;;;;;6164893;23;20028;-90
2023/08/17 04:26:57;;;;;;;4.60;3.37;;;15.20;44.40;;;;;;6163386;23;20016;-90
2023/08/17 04:29:27;;;;;;;7.75;4.40;;;15.20;45.10;;;;;;6189346;23;20732;-89
2023/08/17 04:31:58;;;;;;;5.63;3.85;;;15.30;46.50;;;;;;6165027;23;20021;-90
2023/08/17 04:34:24;;;;;;;4.32;3.50;;;15.30;48.20;;;;;;6139957;23;20392;-90
2023/08/17 04:36:53;;;;;;;3.95;3.42;;;15.20;48.90;;;;;;6188749;23;20013;-90
2023/08/17 04:39:21;;;;;;;5.75;3.28;;;15.20;49.10;;;;;;6164326;23;20020;-89
2023/08/17 04:41:48;;;;;;;6.68;3.38;;;15.20;49.20;;;;;;6189114;23;20020;-89
2023/08/17 04:44:13;;;;;;;5.82;3.22;;;15.20;50.00;;;;;;6163534;23;20100;-90
2023/08/17 04:46:45;;;;;;;6.63;3.30;;;15.30;50.70;;;;;;6188789;23;20028;-89
2023/08/17 04:49:13;;;;;;;6.05;3.15;;;15.30;50.30;;;;;;6163433;23;20056;-90
2023/08/17 04:51:41;;;;;;;4.72;3.58;;;14.90;50.60;;;;;;6164011;23;20024;-90
2023/08/17 04:54:07;;;;;;;4.78;2.70;;;15.20;50.80;;;;;;6141021;23;20023;-90
2023/08/17 04:56:36;;;;;;;5.68;2.60;;;15.30;51.10;;;;;;6167095;23;20016;-89
2023/08/17 04:59:02;;;;;;;6.37;3.50;;;15.30;51.40;;;;;;6163722;23;20100;-89
2023/08/17 05:01:32;;;;;;;4.47;3.28;;;15.20;52.00;;;;;;6190482;23;20313;-88
2023/08/17 05:03:58;;;;;;;5.97;3.08;;;15.30;52.90;;;;;;6165418;23;20017;-90
2023/08/17 05:06:28;;;;;;;5.70;3.67;;;15.20;52.90;;;;;;6163212;23;20017;-90
2023/08/17 05:08:56;;;;;;;3.72;2.60;;;15.40;52.60;;;;;;6163789;23;20017;-89
2023/08/17 05:11:22;;;;;;;5.05;3.45;;;15.30;53.20;;;;;;6164676;23;20421;-90
2023/08/17 05:13:52;;;;;;;6.22;3.25;;;15.20;53.80;;;;;;6164848;23;20020;-90
2023/08/17 05:16:22;;;;;;;10.13;2.88;;;15.20;54.10;;;;;;6165406;23;20020;-89
2023/08/17 05:18:48;;;;;;;5.63;3.22;;;15.20;55.20;;;;;;6189508;23;20124;-89
2023/08/17 05:21:13;;;;;;;4.70;3.13;;;15.20;56.10;;;;;;6162332;23;20016;-90
2023/08/17 05:23:42;;;;;;;5.95;3.30;;;14.40;55.50;;;;;;6188718;23;20035;-89
2023/08/17 05:26:08;;;;;;;6.55;3.38;;;15.20;56.30;;;;;;6188071;23;20282;-89
2023/08/17 05:28:36;;;;;;;9.02;3.95;;;15.40;56.40;;;;;;6163851;23;20442;-88
2023/08/17 05:31:06;;;;;;;5.75;3.00;;;15.30;56.90;;;;;;6164768;23;20449;-89
2023/08/17 05:33:45;;;;;;;10.35;4.18;;;14.70;56.90;;;;;;6164956;23;20068;-89
2023/08/17 05:36:11;;;;;;;7.60;3.55;;;15.40;58.50;;;;;;6188561;23;20017;-89
2023/08/17 05:38:39;;;;;;;5.43;3.45;;;15.40;57.90;;;;;;6139397;23;20022;-89
2023/08/17 05:41:05;;;;;;;3.55;2.88;;;15.50;58.20;;;;;;6163973;23;20020;-90
2023/08/17 05:43:30;;;;;;;4.68;3.10;;;15.30;58.40;;;;;;6163945;23;20020;-89
2023/08/17 05:45:59;;;;;;;6.35;2.90;;;15.40;58.40;;;;;;6163692;23;20036;-89
2023/08/17 05:48:25;;;;;;;4.95;3.30;;;15.40;59.00;;;;;;6163983;23;20190;-89
2023/08/17 05:50:51;;;;;;;5.80;3.28;;;15.50;59.60;;;;;;6163966;23;20020;-88
2023/08/17 05:53:17;;;;;;;5.45;2.85;;;15.40;59.10;;;;;;6163381;23;20023;-89
2023/08/17 05:55:45;;;;;;;8.73;3.20;;;15.30;59.10;;;;;;6164384;23;20051;-89
2023/08/17 05:58:13;;;;;;;4.22;2.83;;;15.50;59.60;;;;;;6187984;23;20023;-89
2023/08/17 06:00:39;;;;;;;4.55;2.95;;;15.50;60.10;;;;;;6163356;23;20024;-82
2023/08/17 06:03:05;;;;;;;6.32;2.85;;;15.50;61.00;;;;;;6165279;23;20392;-87
2023/08/17 06:05:31;;;;;;;6.93;2.67;;;15.50;60.70;;;;;;6186707;23;20019;-90
2023/08/17 06:07:57;;;;;;;3.95;2.35;;;15.60;60.90;;;;;;6187296;23;20013;-89
2023/08/17 06:10:26;;;;;;;;;;;15.70;61.40;;;;;;6187748;23;20020;-89
2023/08/17 06:12:58;;;;;;;7.00;2.80;;;15.70;64.70;;;;;;6163236;23;19919;-87
2023/08/17 06:15:29;;;;;;;4.80;2.53;;;16.20;59.60;;;;;;6163759;23;20079;-88
2023/08/17 06:17:57;;;;;;;7.20;3.13;;;15.80;60.10;;;;;;6162848;23;20016;-88
2023/08/17 06:20:23;;;;;;;9.50;3.42;;;15.70;59.50;;;;;;6137730;23;20087;-88
2023/08/17 06:22:51;;;;;;;3.63;2.55;;;15.80;59.70;;;;;;6163067;23;20027;-90
2023/08/17 06:25:17;;;;;;;6.57;2.42;;;15.70;60.60;;;;;;6162902;23;20013;-91
2023/08/17 06:27:44;;;;;;;6.28;2.75;;;15.80;59.90;;;;;;6163639;23;20098;-87
2023/08/17 06:30:10;;;;;;;4.85;2.67;;;15.80;59.10;;;;;;6162827;23;20016;-91
2023/08/17 06:32:38;;;;;;;;;;;15.80;59.50;;;;;;6162599;23;20095;-89
2023/08/17 06:35:04;;;;;;;6.55;2.75;;;15.90;63.80;;;;;;6214598;23;20325;-89
2023/08/17 06:37:30;;;;;;;7.47;2.85;;;15.00;57.40;;;;;;6186986;23;20449;-84
2023/08/17 06:39:56;;;;;;;9.33;4.13;;;15.90;57.50;;;;;;6162809;23;20012;-90
2023/08/17 06:42:21;;;;;;;5.23;3.37;;;15.90;56.70;;;;;;6161511;23;20298;-84
2023/08/17 06:44:47;;;;;;;5.70;2.47;;;15.90;57.00;;;;;;6162387;23;20259;-85
2023/08/17 06:47:13;;;;;;;6.15;3.03;;;16.00;55.80;;;;;;6186800;23;20017;-86
2023/08/17 06:49:39;;;;;;;6.35;2.50;;;16.10;55.00;;;;;;6162326;23;20020;-85
2023/08/17 06:52:05;;;;;;;18.00;3.13;;;16.10;54.60;;;;;;6162247;23;20022;-84
2023/08/17 06:54:32;;;;;;;5.53;2.95;;;16.10;53.30;;;;;;6160950;23;20410;-85
2023/08/17 06:56:58;;;;;;;5.93;2.40;;;16.20;51.50;;;;;;6162304;23;20096;-84
2023/08/17 06:59:24;;;;;;;4.57;2.67;;;16.20;50.00;;;;;;6213691;23;20020;-84
2023/08/17 07:01:50;;;;;;;4.05;2.20;;;16.20;49.40;;;;;;6137172;23;20077;-84
2023/08/17 07:04:17;;;;;;;7.97;3.47;;;16.20;47.60;;;;;;6138200;23;20016;-86
2023/08/17 07:06:43;;;;;;;5.28;2.47;;;16.30;46.90;;;;;;6187114;23;20013;-84
2023/08/17 07:09:12;;;;;;;3.58;2.20;;;16.30;46.30;;;;;;6187049;23;20021;-84
2023/08/17 07:11:39;;;;;;;4.45;2.00;;;16.40;44.30;;;;;;6186501;23;20020;-82
2023/08/17 07:14:06;;;;;;;4.03;2.05;;;16.30;42.10;;;;;;6187271;23;20097;-82
2023/08/17 07:16:32;;;;;;;6.20;1.77;;;16.40;41.30;;;;;;6187054;23;20017;-83
2023/08/17 07:18:58;;;;;;;4.88;2.10;;;16.50;39.50;;;;;;6187174;23;20023;-81
2023/08/17 07:21:24;;;;;;;5.00;2.10;;;16.50;38.00;;;;;;6187076;23;20021;-85
2023/08/17 07:23:51;;;;;;;4.80;1.88;;;16.50;35.40;;;;;;6187628;23;20469;-85
2023/08/17 07:26:18;;;;;;;4.22;2.17;;;16.60;33.60;;;;;;6214054;23;20016;-85
2023/08/17 07:28:45;;;;;;;3.92;2.33;;;16.70;30.80;;;;;;6162759;23;20056;-84
2023/08/17 07:31:10;;;;;;;3.65;2.33;;;16.80;29.20;;;;;;6162815;23;20445;-84
2023/08/17 07:33:37;;;;;;;2.25;1.90;;;16.80;28.30;;;;;;6162319;23;20055;-83
2023/08/17 07:36:04;;;;;;;4.38;2.38;;;16.90;27.20;;;;;;6214092;23;20055;-84
2023/08/17 07:38:30;;;;;;;4.95;1.80;;;17.00;24.00;;;;;;6189158;23;20021;-83
2023/08/17 07:40:56;;;;;;;3.42;2.08;;;17.00;19.70;;;;;;6163977;23;20315;-83
2023/08/17 07:43:21;;;;;;;4.70;1.67;;;17.00;17.20;;;;;;6192423;23;20023;-83
2023/08/17 07:45:56;;;;;;;2.60;1.60;;;17.00;13.80;;;;;;6165328;23;20023;-83
2023/08/17 07:48:22;;;;;;;3.03;1.70;;;17.10;12.90;;;;;;6140479;23;20020;-83
2023/08/17 07:50:51;;;;;;;4.70;2.15;;;17.10;9.50;;;;;;6165918;23;20099;-83
2023/08/17 07:53:18;;;;;;;3.22;1.50;;;17.00;4.80;;;;;;6191742;23;20020;-82
2023/08/17 07:55:44;;;;;;;3.42;1.80;;;17.10;2.40;;;;;;6165602;23;20020;-84
2023/08/17 07:58:10;;;;;;;4.78;2.30;;;17.10;1.00;;;;;;6164825;23;20043;-84
2023/08/17 08:00:36;;;;;;;3.03;1.60;;;17.10;1.00;;;;;;6188585;23;20449;-83
2023/08/17 08:03:01;;;;;;;6.00;2.08;;;17.10;1.00;;;;;;6139921;23;20013;-83
2023/08/17 08:05:27;;;;;;;5.25;1.70;;;17.10;1.00;;;;;;6188981;23;20059;-84
2023/08/17 08:07:53;;;;;;;3.55;2.40;;;17.10;1.00;;;;;;6189575;23;20020;-84
2023/08/17 08:10:19;;;;;;;4.57;1.80;;;17.10;1.00;;;;;;6164375;23;20021;-84
2023/08/17 08:12:44;;;;;;;2.78;1.95;;;17.20;1.00;;;;;;6163354;23;20021;-85
2023/08/17 08:15:10;;;;;;;6.07;2.30;;;17.30;1.00;;;;;;6189953;23;20079;-85
2023/08/17 08:17:36;;;;;;;2.65;1.65;;;17.40;1.00;;;;;;6139161;23;20008;-87
2023/08/17 08:20:03;;;;;;;3.88;1.70;;;17.50;1.00;;;;;;6189320;23;20441;-85
2023/08/17 08:22:29;;;;;;;3.13;1.83;;;17.60;1.00;;;;;;6163925;23;20016;-86
2023/08/17 08:24:55;;;;;;;5.35;1.98;;;17.70;1.00;;;;;;6164534;23;20456;-85
2023/08/17 08:27:20;;;;;;;3.03;1.75;;;17.80;1.00;;;;;;6164622;23;20048;-86
2023/08/17 08:29:46;;;;;;;2.85;1.52;;;17.90;1.00;;;;;;6164091;23;20154;-86
2023/08/17 08:32:12;;;;;;;5.10;1.80;;;18.30;1.00;;;;;;6189287;23;20139;-85
2023/08/17 08:34:38;;;;;;;2.65;1.58;;;17.90;1.00;;;;;;6139306;23;20050;-85
2023/08/17 08:37:04;;;;;;;6.50;2.47;;;17.70;1.00;;;;;;6187327;23;20016;-86
2023/08/17 08:39:30;;;;;;;7.53;2.15;;;17.70;1.00;;;;;;6164331;23;20074;-88
2023/08/17 08:41:56;;;;;;;2.85;1.75;;;17.70;1.00;;;;;;6139510;23;20020;-85
2023/08/17 08:44:22;;;;;;;6.03;1.95;;;17.60;1.00;;;;;;6163551;23;20517;-85
2023/08/17 08:46:48;;;;;;;4.25;1.92;;;17.70;1.00;;;;;;6187933;23;20024;-87
2023/08/17 08:49:19;;;;;;;;;;;17.70;1.00;;;;;;6188738;23;20028;-86
2023/08/17 08:51:48;;;;;;;6.63;2.08;;;17.70;1.00;;;;;;6188311;23;19919;-86
2023/08/17 08:54:24;;;;;;;4.70;1.90;;;17.70;1.00;;;;;;6188746;23;20070;-86
2023/08/17 08:56:58;;;;;;;6.40;1.33;;;17.70;1.00;;;;;;6188465;23;20850;-86
2023/08/17 08:59:26;;;;;;;2.80;1.40;;;17.70;1.00;;;;;;6164759;23;20017;-86
2023/08/17 09:01:53;;;;;;;6.20;2.10;;;17.70;1.00;;;;;;6188398;23;20019;-86
2023/08/17 09:04:19;;;;;;;8.75;3.17;;;17.70;1.00;;;;;;6164604;23;20016;-87
2023/08/17 09:06:46;;;;;;;3.08;1.85;;;17.60;1.00;;;;;;6163565;23;20074;-86
2023/08/17 09:09:14;;;;;;;3.30;1.90;;;17.70;1.00;;;;;;6163919;23;20459;-86
2023/08/17 09:11:40;;;;;;;2.63;1.55;;;17.70;1.00;;;;;;6188394;23;20110;-87
2023/08/17 09:14:08;;;;;;;7.10;2.20;;;17.70;1.00;;;;;;6163680;23;20458;-86
2023/08/17 09:16:33;;;;;;;2.13;1.92;;;17.80;1.00;;;;;;6188931;23;20048;-87
2023/08/17 09:18:59;;;;;;;6.10;1.80;;;17.80;1.00;;;;;;6188628;23;20434;-86
2023/08/17 09:21:25;;;;;;;3.42;1.73;;;17.80;1.00;;;;;;6139927;23;20021;-86
2023/08/17 09:23:55;;;;;;;6.07;1.80;;;17.90;1.00;;;;;;6138732;23;20013;-87
2023/08/17 09:26:23;;;;;;;5.63;2.35;;;17.90;1.00;;;;;;6188923;23;20106;-86
2023/08/17 09:28:54;;;;;;;5.10;1.63;;;18.00;1.00;;;;;;6188709;23;20019;-87
2023/08/17 09:31:21;;;;;;;4.57;1.65;;;18.00;1.00;;;;;;6189429;23;20028;-86
2023/08/17 09:33:50;;;;;;;4.38;2.30;;;18.00;1.00;;;;;;6164793;23;20028;-86
2023/08/17 09:36:21;;;;;;;4.43;1.90;;;18.10;1.00;;;;;;6140467;23;20052;-86
2023/08/17 09:38:50;;;;;;;2.40;1.48;;;18.10;1.00;;;;;;6188878;23;20067;-86
2023/08/17 09:41:18;;;;;;;4.65;1.85;;;18.20;1.00;;;;;;6166048;23;20406;-86
2023/08/17 09:43:44;;;;;;;3.17;1.50;;;18.20;1.00;;;;;;6163577;23;20028;-86
2023/08/17 09:46:10;;;;;;;1.65;1.55;;;18.30;1.00;;;;;;6164064;23;20098;-86
2023/08/17 09:48:36;;;;;;;3.28;1.50;;;18.30;1.00;;;;;;6188990;23;20021;-86
2023/08/17 09:51:02;;;;;;;3.13;1.77;;;18.30;1.00;;;;;;6163326;23;20078;-86
2023/08/17 09:53:28;;;;;;;4.43;1.80;;;18.30;1.00;;;;;;6163344;23;20035;-86
2023/08/17 09:55:55;;;;;;;5.80;1.85;;;18.30;1.00;;;;;;6187481;23;20016;-86
2023/08/17 09:58:21;;;;;;;2.20;1.45;;;18.30;1.00;;;;;;6187123;23;20337;-86
2023/08/17 10:00:49;;;;;;;3.97;2.47;;;18.30;1.00;;;;;;6160929;23;20028;-86
2023/08/17 10:03:16;;;;;;;6.80;2.50;;;18.40;1.00;;;;;;6162919;23;20350;-86
2023/08/17 10:05:45;;;;;;;4.80;1.83;;;18.50;1.00;;;;;;6187212;23;20017;-89
2023/08/17 10:08:11;;;;;;;2.85;1.70;;;18.60;1.00;;;;;;6214269;23;20017;-85
2023/08/17 10:10:46;;;;;;;2.08;1.88;;;18.70;1.00;;;;;;6187836;23;20020;-84
2023/08/17 10:13:13;;;;;;;4.72;1.90;;;18.80;1.00;;;;;;6187104;23;20352;-84
2023/08/17 10:15:54;;;;;;;5.78;1.73;;;18.90;1.00;;;;;;6163072;23;20052;-83
2023/08/17 10:18:31;;;;;;;3.58;1.73;;;18.90;1.00;;;;;;6214538;23;20031;-83
2023/08/17 10:21:06;;;;;;;;;;;19.10;1.00;;;;;;6188617;23;20024;-84
2023/08/17 10:23:33;;;;;;;2.58;1.50;;;19.10;1.00;;;;;;6217212;23;19916;-86
2023/08/17 10:26:02;;;;;;;3.63;1.70;;;19.20;1.00;;;;;;6201054;23;20110;-83
2023/08/17 10:28:29;;;;;;;2.42;1.55;;;19.20;1.00;;;;;;6138568;23;20024;-83
2023/08/17 10:30:55;;;;;;;3.83;2.10;;;19.20;1.00;;;;;;6161494;23;20095;-83
2023/08/17 10:33:21;;;;;;;3.25;1.90;;;19.20;1.00;;;;;;6138907;23;20055;-84
2023/08/17 10:35:47;;;;;;;5.20;2.00;;;19.20;1.00;;;;;;6162073;23;20410;-84
2023/08/17 10:38:15;;;;;;;;;;;19.20;1.00;;;;;;6215525;23;20013;-84
2023/08/17 10:40:42;;;;;;;8.15;1.88;;;19.10;1.00;;;;;;6187851;23;20388;-84
2023/08/17 10:43:08;;;;;;;2.90;1.83;;;19.10;1.00;;;;;;6162670;23;20091;-83
2023/08/17 10:45:36;;;;;;;2.97;2.25;;;19.10;1.00;;;;;;6186949;23;20044;-84
2023/08/17 10:48:05;;;;;;;3.03;1.60;;;19.10;1.00;;;;;;6187685;23;20023;-83
2023/08/17 10:50:32;;;;;;;6.72;2.20;;;19.20;1.00;;;;;;6188453;23;20099;-84
2023/08/17 10:53:03;;;;;;;4.07;1.90;;;19.20;1.00;;;;;;6187522;23;20016;-84
2023/08/17 10:55:44;;;;;;;7.07;2.58;;;19.30;1.00;;;;;;6188682;23;20027;-83
2023/08/17 10:58:11;;;;;;;5.05;1.92;;;19.40;1.00;;;;;;6187540;23;20023;-83
2023/08/17 11:00:38;;;;;;;3.38;2.05;;;19.50;1.00;;;;;;6163682;23;20091;-83
2023/08/17 11:03:09;;;;;;;3.00;2.05;;;19.50;1.00;;;;;;6187578;23;20016;-84
2023/08/17 11:05:53;;;;;;;4.22;2.35;;;19.50;1.00;;;;;;6194385;23;20040;-87
2023/08/17 11:08:32;;;;;;;5.85;2.55;;;19.40;1.00;;;;;;6193469;23;20026;-84
2023/08/17 11:11:12;;;;;;;4.40;2.63;;;19.30;1.00;;;;;;6187127;23;20016;-84
2023/08/17 11:13:40;;;;;;;2.90;2.08;;;19.30;1.00;;;;;;6213507;23;20032;-84
2023/08/17 11:16:07;;;;;;;3.67;3.25;;;19.30;1.00;;;;;;6213234;23;20107;-85
2023/08/17 11:18:34;;;;;;;4.18;2.45;;;19.30;1.00;;;;;;6213747;23;20024;-84
2023/08/17 11:21:02;;;;;;;4.82;2.55;;;19.20;1.00;;;;;;6213997;23;20025;-84
2023/08/17 11:23:29;;;;;;;5.75;1.95;;;19.20;1.00;;;;;;6187695;23;20031;-84
2023/08/17 11:25:56;;;;;;;2.53;2.33;;;19.30;1.00;;;;;;6161868;23;20449;-82
2023/08/17 11:28:22;;;;;;;5.35;2.45;;;19.30;1.00;;;;;;6164042;23;20052;-83
2023/08/17 11:31:08;;;;;;;4.25;2.70;;;19.30;1.00;;;;;;6188012;23;20016;-84
2023/08/17 11:33:37;;;;;;;4.35;2.15;;;19.30;1.00;;;;;;6187288;23;20023;-85
2023/08/17 11:36:05;;;;;;;4.18;3.13;;;19.20;1.00;;;;;;6213321;23;20059;-84
2023/08/17 11:38:36;;;;;;;4.13;3.08;;;19.20;1.00;;;;;;6162494;23;20074;-84
2023/08/17 11:41:02;;;;;;;6.03;2.65;;;19.30;1.00;;;;;;6186857;23;20100;-83
2023/08/17 11:43:29;;;;;;;3.35;2.30;;;19.30;1.00;;;;;;6188009;23;20508;-83
2023/08/17 11:45:56;;;;;;;5.18;2.38;;;19.40;1.00;;;;;;6187027;23;20013;-87
2023/08/17 11:48:23;;;;;;;4.55;2.67;;;19.40;1.00;;;;;;6213460;23;20024;-83
2023/08/17 11:50:49;;;;;;;6.63;2.55;;;19.50;1.00;;;;;;6161980;23;20027;-85
2023/08/17 11:53:15;;;;;;;6.43;2.72;;;19.50;1.00;;;;;;6161623;23;20092;-86
2023/08/17 11:55:41;;;;;;;5.05;2.80;;;19.60;1.00;;;;;;6187726;23;20024;-86
2023/08/17 11:58:07;;;;;;;;;;;19.60;1.00;;;;;;6214366;23;20017;-86
2023/08/17 12:00:40;;;;;;;3.83;2.70;;;19.60;1.00;;;;;;6187060;23;19991;-86
2023/08/17 12:03:07;;;;;;;3.00;2.75;;;19.60;1.00;;;;;;6162156;23;20017;-85
2023/08/17 12:05:33;;;;;;;4.53;2.90;;;19.50;1.00;;;;;;6187991;23;20017;-85
2023/08/17 12:08:02;;;;;;;6.40;2.85;;;19.60;1.00;;;;;;6187226;23;20048;-86
2023/08/17 12:10:29;;;;;;;3.42;3.05;;;19.50;1.00;;;;;;6181687;23;20021;-86
2023/08/17 12:13:01;;;;;;;6.93;2.90;;;19.60;1.00;;;;;;6182806;23;20028;-86
2023/08/17 12:15:35;;;;;;;5.38;2.80;;;19.60;1.00;;;;;;6158115;23;20017;-86
2023/08/17 12:18:03;;;;;;;7.30;2.97;;;19.70;1.00;;;;;;6157507;23;20021;-87
2023/08/17 12:20:29;;;;;;;4.53;2.80;;;19.80;1.00;;;;;;6182494;23;20028;-87
2023/08/17 12:22:58;;;;;;;6.72;3.88;;;19.90;1.00;;;;;;6159036;23;20036;-86
2023/08/17 12:25:25;;;;;;;5.53;2.88;;;19.90;1.00;;;;;;6184344;23;20512;-87
2023/08/17 12:27:50;;;;;;;8.95;3.97;;;20.00;1.00;;;;;;6184715;23;20467;-87
2023/08/17 12:30:32;;;;;;;7.22;4.72;;;20.00;1.00;;;;;;6134735;23;20099;-87
2023/08/17 12:33:07;;;;;;;4.70;3.63;;;20.10;1.00;;;;;;6159256;23;20053;-89
2023/08/17 12:35:32;;;;;;;5.70;3.10;;;20.10;1.00;;;;;;6184733;23;20013;-89
2023/08/17 12:37:58;;;;;;;4.03;3.05;;;20.10;1.00;;;;;;6159224;23;20084;-83
2023/08/17 12:40:24;;;;;;;3.60;2.33;;;20.00;1.00;;;;;;6185058;23;20092;-87
2023/08/17 12:42:50;;;;;;;4.03;2.92;;;20.00;1.00;;;;;;6134053;23;20017;-88
2023/08/17 12:45:16;;;;;;;3.72;2.65;;;19.90;1.00;;;;;;6158900;23;20103;-87
2023/08/17 12:47:42;;;;;;;5.22;3.05;;;19.90;1.00;;;;;;6184507;23;20390;-89
2023/08/17 12:50:08;;;;;;;7.70;3.85;;;19.90;1.00;;;;;;6183055;23;20049;-88
2023/08/17 12:52:34;;;;;;;;;;;19.80;1.00;;;;;;6134568;23;20049;-88
2023/08/17 12:55:00;;;;;;;4.97;2.60;;;19.80;1.00;;;;;;6134179;23;20419;-89
2023/08/17 12:57:26;;;;;;;6.90;3.08;;;19.70;1.00;;;;;;6133327;23;20054;-89